createdAt,value
2018-04-30T00:00:07.293Z,10.30
2018-04-30T00:02:36.494Z,10.60
2018-04-30T00:05:05.705Z,9.63
2018-04-30T00:07:34.932Z,9.50
2018-04-30T00:10:04.957Z,10.30
2018-04-30T00:12:34.292Z,9.87
2018-04-30T00:15:04.306Z,9.53
2018-04-30T00:17:33.557Z,10.23
2018-04-30T00:20:02.756Z,10.53
2018-04-30T00:22:32.114Z,10.47
2018-04-30T00:25:01.320Z,10.53
2018-04-30T00:27:31.294Z,10.73
2018-04-30T00:30:00.550Z,10.70
2018-04-30T00:32:29.900Z,10.40
2018-04-30T00:34:59.107Z,10.70
2018-04-30T00:37:28.367Z,11.30
2018-04-30T00:39:57.562Z,11.90
2018-04-30T00:42:26.800Z,11.43
2018-04-30T00:44:56.005Z,12.00
2018-04-30T00:47:25.204Z,11.60
2018-04-30T00:49:55.214Z,12.47
2018-04-30T00:52:24.457Z,12.17
2018-04-30T00:55:00.403Z,12.37
2018-04-30T00:57:29.630Z,11.93
2018-04-30T00:59:58.858Z,11.77
2018-04-30T01:02:28.106Z,13.40
2018-04-30T01:04:57.334Z,11.10
2018-04-30T01:07:26.613Z,11.30
2018-04-30T01:09:55.885Z,12.13
2018-04-30T01:12:25.958Z,13.40
2018-04-30T01:14:55.175Z,14.03
2018-04-30T01:17:24.608Z,13.83
2018-04-30T01:19:54.683Z,13.57
2018-04-30T01:22:23.937Z,14.60
2018-04-30T01:24:53.177Z,14.23
2018-04-30T01:27:22.401Z,14.77
2018-04-30T01:29:51.658Z,14.47
2018-04-30T01:32:20.882Z,14.57
2018-04-30T01:34:50.190Z,15.07
2018-04-30T01:37:19.412Z,14.77
2018-04-30T01:39:49.390Z,14.80
2018-04-30T01:42:18.618Z,14.43
2018-04-30T01:44:49.527Z,14.10
2018-04-30T01:47:18.811Z,15.10
2018-04-30T01:49:48.058Z,15.20
2018-04-30T01:52:18.049Z,15.27
2018-04-30T01:54:47.289Z,15.07
2018-04-30T01:57:16.495Z,15.07
2018-04-30T01:59:45.810Z,14.53
2018-04-30T02:02:15.034Z,15.60
2018-04-30T02:04:44.259Z,15.30
2018-04-30T02:07:14.413Z,15.80
2018-04-30T02:09:43.638Z,17.50
2018-04-30T02:12:13.014Z,17.10
2018-04-30T02:14:42.257Z,18.73
2018-04-30T02:17:11.511Z,17.80
2018-04-30T02:19:40.754Z,19.37
2018-04-30T02:22:09.972Z,18.47
2018-04-30T02:24:39.150Z,18.40
2018-04-30T02:27:08.398Z,18.67
2018-04-30T02:29:37.596Z,21.23
2018-04-30T02:32:06.910Z,20.80
2018-04-30T02:34:36.191Z,21.70
2018-04-30T02:37:05.432Z,22.90
2018-04-30T02:39:34.649Z,23.30
2018-04-30T02:42:04.639Z,25.77
2018-04-30T02:44:33.874Z,26.27
2018-04-30T02:47:03.868Z,26.77
2018-04-30T02:49:33.243Z,24.47
2018-04-30T02:52:02.578Z,25.57
2018-04-30T02:54:32.092Z,27.10
2018-04-30T02:57:02.085Z,25.90
2018-04-30T02:59:31.311Z,27.13
2018-04-30T03:02:01.337Z,31.57
2018-04-30T03:04:30.589Z,32.90
2018-04-30T03:06:59.802Z,30.70
2018-04-30T03:09:29.035Z,32.97
2018-04-30T03:11:58.249Z,34.03
2018-04-30T03:14:27.488Z,34.40
2018-04-30T03:16:56.711Z,34.80
2018-04-30T03:19:26.729Z,32.53
2018-04-30T03:21:56.669Z,35.13
2018-04-30T03:24:25.931Z,35.63
2018-04-30T03:26:55.125Z,35.03
2018-04-30T03:29:24.349Z,36.97
2018-04-30T03:31:53.571Z,35.73
2018-04-30T03:34:22.841Z,35.07
2018-04-30T03:36:52.824Z,37.10
2018-04-30T03:39:22.044Z,37.00
2018-04-30T03:41:52.009Z,34.00
2018-04-30T03:44:21.217Z,33.17
2018-04-30T03:46:50.421Z,35.73
2018-04-30T03:49:19.674Z,34.83
2018-04-30T03:51:48.885Z,36.90
2018-04-30T03:54:18.123Z,39.53
2018-04-30T03:56:47.489Z,40.00
2018-04-30T03:59:16.660Z,38.87
2018-04-30T04:02:03.609Z,38.80
2018-04-30T04:04:50.419Z,41.03
2018-04-30T04:07:19.645Z,41.00
2018-04-30T04:09:48.912Z,44.07
2018-04-30T04:12:18.963Z,41.27
2018-04-30T04:14:48.241Z,41.40
2018-04-30T04:17:17.449Z,42.47
2018-04-30T04:19:46.661Z,40.00
2018-04-30T04:22:15.890Z,40.70
2018-04-30T04:24:45.119Z,42.77
2018-04-30T04:27:14.345Z,41.37
2018-04-30T04:29:43.913Z,45.07
2018-04-30T04:32:13.877Z,41.60
2018-04-30T04:34:43.107Z,40.10
2018-04-30T04:37:12.332Z,41.50
2018-04-30T04:39:41.543Z,37.83
2018-04-30T04:42:10.837Z,35.87
2018-04-30T04:44:40.058Z,33.33
2018-04-30T04:47:09.328Z,32.33
2018-04-30T04:49:38.521Z,31.03
2018-04-30T04:52:08.077Z,28.40
2018-04-30T04:54:38.078Z,28.03
2018-04-30T04:57:07.314Z,24.73
2018-04-30T04:59:36.623Z,25.00
2018-04-30T05:02:05.832Z,18.00
2018-04-30T05:04:35.069Z,16.03
2018-04-30T05:07:04.282Z,11.20
2018-04-30T05:09:34.279Z,10.53
2018-04-30T05:12:03.517Z,10.50
2018-04-30T05:14:32.783Z,9.73
2018-04-30T05:17:01.980Z,9.03
2018-04-30T05:19:31.302Z,8.17
2018-04-30T05:22:01.290Z,7.20
2018-04-30T05:24:31.214Z,5.27
2018-04-30T05:27:00.725Z,3.70
2018-04-30T05:29:29.949Z,3.10
2018-04-30T05:31:59.304Z,2.80
2018-04-30T05:34:28.592Z,2.60
2018-04-30T05:36:57.830Z,2.93
2018-04-30T05:39:27.996Z,2.77
2018-04-30T05:41:57.221Z,2.83
2018-04-30T05:44:26.649Z,2.80
2018-04-30T05:46:56.733Z,3.10
2018-04-30T05:49:25.973Z,2.23
2018-04-30T05:51:55.177Z,2.20
2018-04-30T05:54:24.448Z,1.40
2018-04-30T05:56:53.708Z,0.97
2018-04-30T05:59:22.904Z,1.20
2018-04-30T06:01:52.134Z,1.03
2018-04-30T06:04:21.349Z,1.00
2018-04-30T06:06:51.363Z,0.80
2018-04-30T06:09:20.619Z,0.80
2018-04-30T06:11:49.850Z,0.70
2018-04-30T06:14:19.160Z,0.83
2018-04-30T06:16:49.226Z,0.93
2018-04-30T06:19:18.460Z,0.80
2018-04-30T06:21:47.682Z,0.80
2018-04-30T06:24:17.814Z,0.93
2018-04-30T06:26:47.134Z,1.10
2018-04-30T06:29:16.276Z,1.20
2018-04-30T06:31:45.546Z,0.80
2018-04-30T06:34:14.772Z,0.97
2018-04-30T06:36:44.005Z,0.80
2018-04-30T06:39:13.252Z,1.00
2018-04-30T06:41:42.452Z,0.90
2018-04-30T06:44:11.678Z,0.80
2018-04-30T06:46:41.745Z,1.17
2018-04-30T06:49:10.912Z,1.00
2018-04-30T06:51:40.862Z,1.10
2018-04-30T06:54:10.163Z,1.63
2018-04-30T06:56:39.363Z,1.10
2018-04-30T06:59:08.592Z,1.90
2018-04-30T07:01:37.818Z,1.00
2018-04-30T07:04:07.187Z,1.03
2018-04-30T07:06:36.418Z,1.13
2018-04-30T07:09:05.729Z,1.17
2018-04-30T07:11:34.868Z,1.00
2018-04-30T07:14:04.126Z,0.97
2018-04-30T07:16:33.382Z,0.83
2018-04-30T07:19:02.605Z,0.90
2018-04-30T07:21:31.889Z,0.70
2018-04-30T07:24:01.237Z,0.73
2018-04-30T07:26:30.449Z,0.70
2018-04-30T07:28:59.675Z,0.97
2018-04-30T07:31:29.579Z,0.97
2018-04-30T07:33:58.905Z,0.90
2018-04-30T07:36:28.889Z,1.00
2018-04-30T07:38:58.123Z,0.83
2018-04-30T07:41:27.376Z,0.80
2018-04-30T07:43:56.603Z,0.70
2018-04-30T07:46:26.619Z,0.90
2018-04-30T07:48:55.833Z,0.90
2018-04-30T07:51:25.809Z,0.80
2018-04-30T07:53:55.028Z,0.70
2018-04-30T07:56:24.238Z,1.13
2018-04-30T07:58:53.452Z,0.90
2018-04-30T08:01:22.669Z,0.90
2018-04-30T08:03:51.888Z,0.90
2018-04-30T08:06:21.111Z,0.70
2018-04-30T08:08:50.306Z,0.70
2018-04-30T08:11:21.150Z,0.70
2018-04-30T08:13:51.775Z,0.80
2018-04-30T08:16:21.026Z,0.70
2018-04-30T08:18:50.313Z,0.60
2018-04-30T08:21:19.553Z,0.90
2018-04-30T08:23:48.784Z,0.80
2018-04-30T08:26:19.085Z,1.00
2018-04-30T08:28:48.286Z,0.80
2018-04-30T08:31:17.503Z,0.77
2018-04-30T08:33:47.500Z,1.00
2018-04-30T08:36:16.706Z,0.93
2018-04-30T08:38:46.772Z,0.93
2018-04-30T08:41:15.997Z,0.87
2018-04-30T08:43:45.211Z,1.00
2018-04-30T08:46:14.437Z,0.90
2018-04-30T08:48:44.511Z,1.20
2018-04-30T08:51:13.741Z,0.93
2018-04-30T08:53:43.030Z,0.90
2018-04-30T08:56:13.772Z,0.97
2018-04-30T08:58:43.754Z,1.07
2018-04-30T09:01:13.025Z,0.80
2018-04-30T09:03:42.246Z,0.90
2018-04-30T09:06:12.262Z,1.10
2018-04-30T09:08:41.486Z,0.93
2018-04-30T09:11:10.685Z,0.90
2018-04-30T09:13:40.765Z,0.90
2018-04-30T09:16:10.007Z,1.10
2018-04-30T09:18:39.232Z,0.83
2018-04-30T09:21:08.438Z,0.90
2018-04-30T09:23:37.672Z,0.90
2018-04-30T09:26:06.891Z,1.43
2018-04-30T09:28:36.105Z,1.00
2018-04-30T09:31:06.099Z,1.07
2018-04-30T09:33:35.304Z,1.00
2018-04-30T09:36:05.322Z,1.10
2018-04-30T09:38:35.347Z,1.10
2018-04-30T09:41:04.582Z,1.30
2018-04-30T09:43:33.846Z,1.00
2018-04-30T09:46:03.173Z,1.43
2018-04-30T09:48:32.385Z,0.90
2018-04-30T09:51:01.601Z,1.00
2018-04-30T09:53:30.837Z,1.20
2018-04-30T09:56:01.040Z,0.93
2018-04-30T09:58:30.236Z,0.97
2018-04-30T10:00:59.501Z,0.90
2018-04-30T10:03:28.803Z,0.87
2018-04-30T10:05:58.051Z,0.70
2018-04-30T10:08:28.063Z,1.10
2018-04-30T10:10:57.313Z,1.10
2018-04-30T10:13:26.541Z,0.87
2018-04-30T10:15:55.808Z,0.93
2018-04-30T10:18:25.073Z,1.10
2018-04-30T10:20:55.124Z,0.80
2018-04-30T10:23:24.380Z,0.90
2018-04-30T10:25:53.629Z,0.90
2018-04-30T10:28:23.962Z,0.80
2018-04-30T10:30:53.159Z,1.13
2018-04-30T10:33:22.378Z,0.90
2018-04-30T10:35:52.388Z,1.10
2018-04-30T10:38:21.557Z,1.07
2018-04-30T10:40:50.755Z,0.70
2018-04-30T10:43:20.001Z,1.00
2018-04-30T10:45:50.077Z,0.87
2018-04-30T10:48:19.252Z,1.40
2018-04-30T10:50:48.467Z,0.77
2018-04-30T10:53:17.690Z,1.30
2018-04-30T10:55:46.954Z,0.70
2018-04-30T10:58:16.160Z,0.90
2018-04-30T11:00:45.462Z,0.90
2018-04-30T11:03:15.425Z,0.90
2018-04-30T11:05:45.413Z,0.77
2018-04-30T11:08:14.731Z,0.60
2018-04-30T11:10:44.721Z,0.90
2018-04-30T11:13:13.976Z,1.00
2018-04-30T11:15:43.177Z,0.87
2018-04-30T11:18:12.419Z,1.23
2018-04-30T11:20:41.647Z,1.10
2018-04-30T11:23:11.611Z,0.80
2018-04-30T11:25:40.926Z,0.80
2018-04-30T11:28:10.145Z,0.70
2018-04-30T11:30:39.458Z,0.70
2018-04-30T11:33:09.427Z,0.70
2018-04-30T11:35:38.651Z,0.90
2018-04-30T11:38:07.959Z,0.97
2018-04-30T11:40:37.185Z,1.00
2018-04-30T11:43:06.436Z,0.97
2018-04-30T11:45:35.655Z,0.83
2018-04-30T11:48:05.697Z,0.80
2018-04-30T11:50:34.980Z,0.90
2018-04-30T11:53:04.953Z,0.90
2018-04-30T11:55:34.166Z,1.00
2018-04-30T11:58:03.469Z,1.47
2018-04-30T12:00:32.698Z,1.13
2018-04-30T12:03:02.673Z,0.83
2018-04-30T12:05:31.935Z,0.90
2018-04-30T12:08:01.289Z,1.10
2018-04-30T12:10:30.564Z,0.70
2018-04-30T12:12:59.754Z,0.93
2018-04-30T12:15:28.995Z,0.97
2018-04-30T12:17:58.225Z,0.73
2018-04-30T12:20:27.614Z,0.70
2018-04-30T12:22:56.842Z,0.80
2018-04-30T12:25:26.146Z,0.80
2018-04-30T12:27:56.088Z,0.70
2018-04-30T12:30:25.288Z,0.80
2018-04-30T12:32:55.308Z,0.70
2018-04-30T12:35:24.537Z,0.80
2018-04-30T12:37:53.920Z,0.77
2018-04-30T12:40:23.920Z,0.80
2018-04-30T12:42:53.425Z,0.80
2018-04-30T12:45:22.638Z,0.70
2018-04-30T12:47:51.968Z,0.70
2018-04-30T12:50:21.319Z,0.87
2018-04-30T12:52:50.682Z,0.60
2018-04-30T12:55:19.865Z,0.80
2018-04-30T12:57:49.234Z,0.83
2018-04-30T13:00:18.514Z,0.83
2018-04-30T13:02:47.735Z,0.80
2018-04-30T13:05:17.730Z,0.70
2018-04-30T13:07:46.957Z,0.87
2018-04-30T13:10:16.182Z,0.90
2018-04-30T13:12:45.403Z,0.77
2018-04-30T13:15:14.690Z,0.70
2018-04-30T13:17:43.910Z,0.90
2018-04-30T13:20:13.142Z,0.73
2018-04-30T13:22:43.126Z,0.77
2018-04-30T13:25:12.345Z,0.70
2018-04-30T13:27:41.621Z,0.60
2018-04-30T13:30:10.858Z,0.60
2018-04-30T13:32:40.052Z,0.80
2018-04-30T13:35:10.037Z,0.80
2018-04-30T13:37:39.228Z,0.70
2018-04-30T13:40:08.455Z,0.70
2018-04-30T13:42:37.659Z,0.60
2018-04-30T13:45:07.814Z,0.67
2018-04-30T13:47:37.022Z,0.60
2018-04-30T13:50:06.263Z,0.70
2018-04-30T13:52:36.253Z,0.70
2018-04-30T13:55:05.513Z,0.60
2018-04-30T13:57:34.761Z,0.60
2018-04-30T14:00:03.998Z,0.70
2018-04-30T14:02:33.997Z,0.60
2018-04-30T14:05:04.004Z,0.60
2018-04-30T14:07:33.221Z,0.80
2018-04-30T14:10:03.476Z,0.77
2018-04-30T14:12:32.702Z,0.73
2018-04-30T14:15:01.929Z,0.70
2018-04-30T14:17:31.144Z,0.70
2018-04-30T14:20:00.457Z,0.70
2018-04-30T14:22:29.873Z,0.73
2018-04-30T14:24:59.101Z,0.60
2018-04-30T14:27:28.329Z,0.60
2018-04-30T14:29:58.441Z,0.63
2018-04-30T14:32:28.434Z,0.70
2018-04-30T14:34:57.663Z,0.80
2018-04-30T14:37:27.668Z,0.93
2018-04-30T14:39:57.667Z,0.60
2018-04-30T14:42:26.884Z,0.80
2018-04-30T14:44:56.867Z,0.70
2018-04-30T14:47:26.134Z,0.63
2018-04-30T14:49:55.370Z,0.67
2018-04-30T14:52:24.578Z,0.70
2018-04-30T14:54:54.627Z,0.87
2018-04-30T14:57:24.608Z,0.70
2018-04-30T14:59:53.848Z,0.60
2018-04-30T15:02:23.077Z,0.60
2018-04-30T15:04:52.309Z,0.80
2018-04-30T15:07:21.565Z,0.60
2018-04-30T15:09:50.787Z,0.60
2018-04-30T15:12:19.990Z,0.50
2018-04-30T15:14:49.292Z,0.60
2018-04-30T15:17:18.482Z,0.50
2018-04-30T15:19:47.816Z,0.90
2018-04-30T15:22:17.799Z,0.60
2018-04-30T15:24:47.058Z,0.60
2018-04-30T15:27:16.308Z,0.50
2018-04-30T15:29:45.929Z,0.50
2018-04-30T15:32:15.926Z,0.60
2018-04-30T15:34:45.222Z,0.60
2018-04-30T15:37:14.457Z,0.60
2018-04-30T15:39:43.679Z,0.60
2018-04-30T15:42:12.917Z,0.40
2018-04-30T15:44:42.135Z,0.60
2018-04-30T15:47:12.114Z,0.50
2018-04-30T15:49:41.321Z,0.50
2018-04-30T15:52:10.578Z,0.60
2018-04-30T15:54:39.831Z,0.60
2018-04-30T15:57:09.009Z,0.70
2018-04-30T15:59:38.258Z,0.50
2018-04-30T16:02:07.488Z,0.50
2018-04-30T16:04:37.564Z,0.60
2018-04-30T16:07:07.574Z,0.70
2018-04-30T16:09:37.580Z,0.63
2018-04-30T16:12:06.809Z,0.80
2018-04-30T16:14:36.070Z,0.57
2018-04-30T16:17:05.269Z,0.50
2018-04-30T16:19:34.485Z,0.60
2018-04-30T16:22:04.457Z,0.50
2018-04-30T16:24:33.749Z,0.50
2018-04-30T16:27:03.753Z,0.50
2018-04-30T16:29:32.982Z,0.70
2018-04-30T16:32:02.185Z,0.60
2018-04-30T16:34:31.456Z,1.10
2018-04-30T16:37:00.674Z,0.70
2018-04-30T16:39:29.942Z,0.50
2018-04-30T16:41:59.186Z,0.60
2018-04-30T16:44:28.448Z,0.60
2018-04-30T16:46:57.658Z,0.70
2018-04-30T16:49:26.919Z,0.60
2018-04-30T16:51:56.899Z,0.60
2018-04-30T16:54:26.138Z,0.77
2018-04-30T16:56:55.396Z,0.70
2018-04-30T16:59:24.629Z,1.10
2018-04-30T17:01:53.853Z,0.70
2018-04-30T17:04:23.098Z,0.70
2018-04-30T17:06:52.283Z,0.50
2018-04-30T17:09:21.516Z,0.70
2018-04-30T17:11:50.769Z,0.60
2018-04-30T17:14:19.984Z,0.70
2018-04-30T17:16:49.162Z,0.60
2018-04-30T17:19:19.196Z,0.60
2018-04-30T17:21:48.422Z,0.60
2018-04-30T17:24:17.692Z,0.50
2018-04-30T17:26:46.864Z,0.60
2018-04-30T17:29:16.066Z,0.63
2018-04-30T17:31:46.160Z,0.50
2018-04-30T17:34:15.410Z,0.60
2018-04-30T17:36:44.631Z,0.50
2018-04-30T17:39:13.841Z,0.50
2018-04-30T17:41:43.102Z,0.63
2018-04-30T17:44:12.327Z,0.77
2018-04-30T17:46:41.564Z,0.60
2018-04-30T17:49:10.810Z,0.70
2018-04-30T18:07:55.120Z,0.60
2018-04-30T18:10:24.352Z,0.60
2018-04-30T18:12:53.719Z,0.60
2018-04-30T18:15:22.975Z,0.60
2018-04-30T18:17:52.239Z,0.50
2018-04-30T18:20:21.565Z,1.17
2018-04-30T18:22:51.551Z,0.77
2018-04-30T18:25:21.685Z,0.60
2018-04-30T18:27:51.867Z,0.70
2018-04-30T18:30:21.093Z,0.60
2018-04-30T18:32:51.089Z,0.70
2018-04-30T18:35:20.342Z,0.70
2018-04-30T18:37:49.553Z,0.90
2018-04-30T18:40:18.899Z,0.80
2018-04-30T18:42:48.109Z,0.70
2018-04-30T18:45:18.267Z,0.70
2018-04-30T18:47:47.475Z,0.87
2018-04-30T18:50:17.434Z,0.77
2018-04-30T18:52:47.048Z,0.60
2018-04-30T18:55:16.314Z,0.70
2018-04-30T18:57:45.520Z,0.70
2018-04-30T19:00:14.774Z,0.90
2018-04-30T19:02:44.015Z,0.80
2018-04-30T19:05:13.295Z,0.80
2018-04-30T19:07:43.206Z,0.80
2018-04-30T19:10:12.455Z,0.77
2018-04-30T19:12:41.699Z,0.70
2018-04-30T19:15:10.943Z,0.50
2018-04-30T19:17:40.175Z,0.60
2018-04-30T19:20:10.208Z,0.70
2018-04-30T19:22:40.153Z,0.67
2018-04-30T19:25:10.956Z,0.70
2018-04-30T19:27:40.188Z,0.67
2018-04-30T19:30:09.408Z,0.60
2018-04-30T19:32:38.656Z,0.70
2018-04-30T19:35:07.882Z,0.60
2018-04-30T19:37:37.143Z,0.63
2018-04-30T19:40:07.097Z,0.60
2018-04-30T19:42:36.337Z,0.67
2018-04-30T19:45:06.980Z,0.67
2018-04-30T19:47:36.241Z,0.70
2018-04-30T19:50:05.461Z,0.60
2018-04-30T19:52:35.466Z,0.60
2018-04-30T19:55:04.693Z,0.70
2018-04-30T19:57:33.921Z,0.80
2018-04-30T20:00:03.197Z,0.67
2018-04-30T20:02:32.441Z,0.70
2018-04-30T20:05:01.697Z,0.70
2018-04-30T20:07:30.889Z,0.70
2018-04-30T20:10:00.108Z,0.63
2018-04-30T20:12:29.312Z,0.73
2018-04-30T20:14:58.594Z,0.60
2018-04-30T20:17:27.822Z,0.50
2018-04-30T20:19:57.049Z,0.70
2018-04-30T20:22:26.347Z,0.50
2018-04-30T20:24:55.572Z,0.60
2018-04-30T20:27:24.823Z,0.60
2018-04-30T20:29:54.878Z,0.53
2018-04-30T20:32:24.134Z,0.70
2018-04-30T20:34:53.413Z,0.70
2018-04-30T20:37:22.652Z,1.10
2018-04-30T20:39:51.857Z,0.70
2018-04-30T20:42:21.834Z,0.70
2018-04-30T20:44:51.955Z,0.60
2018-04-30T20:47:21.198Z,0.60
2018-04-30T20:49:50.437Z,0.50
2018-04-30T20:52:19.689Z,0.50
2018-04-30T20:54:49.681Z,0.60
2018-04-30T20:57:18.939Z,0.60
2018-04-30T20:59:48.178Z,0.70
2018-04-30T21:02:17.430Z,0.50
2018-04-30T21:04:46.631Z,0.60
2018-04-30T21:07:15.847Z,0.60
2018-04-30T21:09:45.821Z,0.70
2018-04-30T21:12:15.920Z,0.60
2018-04-30T21:14:45.141Z,1.30
2018-04-30T21:17:14.426Z,0.70
2018-04-30T21:19:44.406Z,0.60
2018-04-30T21:22:13.753Z,0.60
2018-04-30T21:24:43.039Z,0.80
2018-04-30T21:27:13.010Z,0.50
2018-04-30T21:29:42.292Z,0.50
2018-04-30T21:32:11.491Z,0.60
2018-04-30T21:34:40.729Z,0.60
2018-04-30T21:37:10.018Z,0.60
2018-04-30T21:39:39.266Z,0.70
2018-04-30T21:42:08.483Z,0.60
2018-04-30T21:44:37.685Z,1.00
2018-04-30T21:47:06.948Z,0.70
2018-04-30T21:49:36.938Z,0.50
2018-04-30T21:52:06.256Z,0.60
2018-04-30T21:54:36.240Z,0.60
2018-04-30T21:57:05.431Z,0.70
2018-04-30T21:59:34.653Z,0.70
2018-04-30T22:02:03.898Z,0.67
2018-04-30T22:04:33.162Z,0.90
2018-04-30T22:07:03.126Z,0.87
2018-04-30T22:09:32.369Z,0.60
2018-04-30T22:12:01.592Z,0.70
2018-04-30T22:14:31.527Z,0.60
2018-04-30T22:17:00.741Z,0.70
2018-04-30T22:19:29.974Z,0.80
2018-04-30T22:21:59.974Z,0.90
2018-04-30T22:24:29.198Z,0.70
2018-04-30T22:26:59.182Z,0.60
2018-04-30T22:29:28.475Z,0.80
2018-04-30T22:31:57.688Z,0.80
2018-04-30T22:34:26.881Z,0.73
2018-04-30T22:36:56.169Z,0.60
2018-04-30T22:39:25.434Z,0.83
2018-04-30T22:41:54.684Z,0.70
2018-04-30T22:44:24.723Z,0.70
2018-04-30T22:46:54.718Z,0.80
2018-04-30T22:49:23.898Z,0.80
2018-04-30T22:51:53.102Z,1.63
2018-04-30T22:54:22.307Z,0.80
2018-04-30T22:56:51.523Z,0.70
2018-04-30T22:59:21.508Z,0.70
2018-04-30T23:01:50.730Z,0.60
2018-04-30T23:04:20.713Z,0.70
2018-04-30T23:06:49.917Z,0.60
2018-04-30T23:09:19.212Z,0.67
2018-04-30T23:11:48.462Z,0.80
2018-04-30T23:14:17.677Z,0.70
2018-04-30T23:16:46.870Z,0.70
2018-04-30T23:19:16.097Z,0.70
2018-04-30T23:21:45.317Z,0.70
2018-04-30T23:24:14.537Z,0.83
2018-04-30T23:26:44.538Z,0.60
2018-04-30T23:29:13.719Z,0.70
2018-04-30T23:31:42.915Z,0.80
2018-04-30T23:34:12.158Z,0.70
2018-04-30T23:36:41.349Z,0.80
2018-04-30T23:39:10.572Z,0.60
2018-04-30T23:41:39.771Z,0.87
2018-04-30T23:44:09.005Z,0.60
2018-04-30T23:46:38.195Z,0.63
2018-04-30T23:49:07.447Z,0.80
2018-04-30T23:51:36.641Z,0.60
2018-04-30T23:54:05.850Z,0.90
2018-04-30T23:56:35.062Z,1.00
2018-04-30T23:59:04.292Z,0.70
